Time;durP1;ratioP1;P1;durP2;ratioP2;P2;SDS_P1;SDS_P2;PMS_P1;PMS_P2;Temp;Humidity;BMP_temperature;BMP_pressure;BME280_temperature;BME280_humidity;BME280_pressure;Samples;Min_cycle;Max_cycle;Signal;HPM_P1;HPM_P2
2022/01/04 00:01:36;;;;;;;6.23;1.93;;;;;;;;;;5036061;28;20206;-65
2022/01/04 00:04:02;;;;;;;4.43;2.30;;;;;;;;;;5036010;28;20233;-66
2022/01/04 00:06:28;;;;;;;9.50;3.83;;;;;;;;;;5050495;22;20234;-66
2022/01/04 00:08:59;;;;;;;4.40;2.30;;;;;;;;;;5036123;28;20242;-66
2022/01/04 00:11:42;;;;;;;5.97;3.13;;;;;;;;;;5036753;28;20164;-64
2022/01/04 00:14:08;;;;;;;6.57;3.00;;;;;;;;;;5051489;28;20650;-66
2022/01/04 00:16:34;;;;;;;5.70;2.50;;;;;;;;;;5035928;28;20199;-65
2022/01/04 00:19:00;;;;;;;6.43;2.77;;;;;;;;;;5034711;28;20721;-64
2022/01/04 00:21:26;;;;;;;6.63;2.80;;;;;;;;;;5036840;28;20179;-66
2022/01/04 00:23:52;;;;;;;4.80;2.60;;;;;;;;;;5035837;28;20183;-65
2022/01/04 00:26:18;;;;;;;3.67;1.87;;;;;;;;;;5037307;28;20198;-65
2022/01/04 00:28:44;;;;;;;3.30;1.57;;;;;;;;;;5036976;28;20182;-65
2022/01/04 00:31:10;;;;;;;4.93;1.80;;;;;;;;;;5036088;28;20186;-65
2022/01/04 00:33:37;;;;;;;3.13;1.40;;;;;;;;;;5036193;28;20185;-66
2022/01/04 00:36:03;;;;;;;3.33;1.67;;;;;;;;;;5034548;28;20273;-65
2022/01/04 00:38:29;;;;;;;3.20;1.60;;;;;;;;;;5034439;28;20666;-64
2022/01/04 00:40:55;;;;;;;1.80;1.30;;;;;;;;;;5036190;28;20604;-63
2022/01/04 00:43:21;;;;;;;5.57;2.10;;;;;;;;;;5036009;28;20642;-65
2022/01/04 00:45:47;;;;;;;2.40;1.30;;;;;;;;;;5033944;28;20171;-64
2022/01/04 00:50:40;;;;;;;2.73;1.30;;;;;;;;;;5036019;28;20623;-66
2022/01/04 00:53:06;;;;;;;2.23;1.40;;;;;;;;;;5032999;28;20203;-66
2022/01/04 00:55:33;;;;;;;2.03;1.30;;;;;;;;;;5034753;28;20184;-66
2022/01/04 00:57:59;;;;;;;3.70;1.60;;;;;;;;;;5035036;28;20207;-66
2022/01/04 01:00:25;;;;;;;2.67;1.60;;;;;;;;;;5035490;28;20206;-65
2022/01/04 01:02:52;;;;;;;2.20;1.50;;;;;;;;;;5034053;28;20179;-65
2022/01/04 01:05:18;;;;;;;2.43;1.77;;;;;;;;;;5035407;28;20183;-66
2022/01/04 01:07:45;;;;;;;2.57;1.60;;;;;;;;;;5034114;28;20717;-65
2022/01/04 01:13:08;;;;;;;2.00;1.63;;;;;;;;;;5030618;28;20278;-65
2022/01/04 01:15:34;;;;;;;2.50;1.80;;;;;;;;;;5035242;28;20206;-64
2022/01/04 01:18:00;;;;;;;2.63;1.80;;;;;;;;;;5035751;28;20244;-66
2022/01/04 01:20:26;;;;;;;3.23;1.50;;;;;;;;;;5035001;28;20206;-66
2022/01/04 01:22:52;;;;;;;2.33;1.60;;;;;;;;;;5036406;28;20199;-65
2022/01/04 01:25:20;;;;;;;2.17;1.77;;;;;;;;;;5035894;28;20175;-64
2022/01/04 01:27:46;;;;;;;3.37;1.70;;;;;;;;;;5035862;28;20666;-63
2022/01/04 01:30:12;;;;;;;5.87;1.80;;;;;;;;;;5035051;28;20179;-65
2022/01/04 01:32:38;;;;;;;3.30;1.90;;;;;;;;;;5034548;28;20210;-63
2022/01/04 01:35:04;;;;;;;2.60;1.80;;;;;;;;;;5034499;28;20628;-63
2022/01/04 01:37:30;;;;;;;4.27;1.90;;;;;;;;;;5035045;28;20215;-64
2022/01/04 01:39:56;;;;;;;3.70;1.80;;;;;;;;;;5036003;28;20207;-66
2022/01/04 01:42:23;;;;;;;2.33;2.00;;;;;;;;;;5035908;28;20179;-64
2022/01/04 01:44:49;;;;;;;4.13;1.90;;;;;;;;;;5036208;28;20202;-65
2022/01/04 01:47:15;;;;;;;2.97;1.87;;;;;;;;;;5034564;28;20281;-64
2022/01/04 01:49:41;;;;;;;2.47;2.00;;;;;;;;;;5033802;28;20171;-65
2022/01/04 01:52:07;;;;;;;2.13;2.00;;;;;;;;;;5035875;28;20182;-65
2022/01/04 01:54:34;;;;;;;2.37;2.03;;;;;;;;;;5034701;28;20175;-69
2022/01/04 01:56:59;;;;;;;3.47;1.80;;;;;;;;;;5035386;28;20567;-65
2022/01/04 01:59:25;;;;;;;2.30;2.00;;;;;;;;;;5034998;28;20198;-64
2022/01/04 02:01:51;;;;;;;2.57;2.10;;;;;;;;;;5035786;28;20677;-63
2022/01/04 02:04:17;;;;;;;2.53;1.80;;;;;;;;;;5039028;28;20247;-67
2022/01/04 02:06:43;;;;;;;2.63;2.00;;;;;;;;;;5041633;28;20211;-66
2022/01/04 02:09:09;;;;;;;3.40;2.13;;;;;;;;;;5039371;28;20187;-64
2022/01/04 02:11:35;;;;;;;5.10;2.40;;;;;;;;;;5040933;28;20186;-64
2022/01/04 02:14:02;;;;;;;4.43;2.00;;;;;;;;;;5041494;28;20209;-65
2022/01/04 02:16:29;;;;;;;3.33;2.20;;;;;;;;;;5040215;28;20202;-64
2022/01/04 02:19:06;;;;;;;3.43;2.33;;;;;;;;;;5040446;28;20198;-65
2022/01/04 02:21:33;;;;;;;4.13;2.30;;;;;;;;;;5040304;28;20232;-65
2022/01/04 02:23:59;;;;;;;4.63;2.37;;;;;;;;;;5041354;28;20179;-65
2022/01/04 02:26:25;;;;;;;2.53;2.13;;;;;;;;;;5039978;28;20201;-64
2022/01/04 02:28:51;;;;;;;2.23;2.03;;;;;;;;;;5041409;28;20203;-64
2022/01/04 02:31:17;;;;;;;5.60;2.10;;;;;;;;;;5039154;28;20189;-65
2022/01/04 02:33:43;;;;;;;2.10;1.90;;;;;;;;;;5039680;28;20178;-64
2022/01/04 02:36:09;;;;;;;3.53;2.13;;;;;;;;;;5041077;28;20566;-64
2022/01/04 02:38:37;;;;;;;3.00;2.23;;;;;;;;;;5040964;28;20179;-65
2022/01/04 02:41:03;;;;;;;2.50;2.10;;;;;;;;;;5041085;28;20198;-64
2022/01/04 02:43:29;;;;;;;2.20;2.00;;;;;;;;;;5040836;28;20171;-65
2022/01/04 02:45:55;;;;;;;2.70;2.20;;;;;;;;;;5041566;28;20225;-65
2022/01/04 02:48:22;;;;;;;2.37;2.10;;;;;;;;;;5041730;28;20182;-65
2022/01/04 02:50:50;;;;;;;3.23;2.50;;;;;;;;;;5039769;28;20233;-64
2022/01/04 02:53:16;;;;;;;3.47;2.40;;;;;;;;;;5040902;28;20187;-65
2022/01/04 02:55:42;;;;;;;4.43;2.60;;;;;;;;;;5041507;28;20639;-64
2022/01/04 02:58:08;;;;;;;3.93;2.80;;;;;;;;;;5041500;28;20190;-65
2022/01/04 03:00:34;;;;;;;3.57;2.60;;;;;;;;;;5041049;28;20674;-64
2022/01/04 03:03:00;;;;;;;5.07;2.60;;;;;;;;;;5041565;28;20179;-63
2022/01/04 03:05:26;;;;;;;8.63;2.87;;;;;;;;;;5041461;28;20186;-64
2022/01/04 03:07:52;;;;;;;4.97;2.50;;;;;;;;;;5041428;28;20234;-64
2022/01/04 03:10:18;;;;;;;4.63;2.83;;;;;;;;;;5041394;28;20187;-66
2022/01/04 03:12:44;;;;;;;3.60;2.50;;;;;;;;;;5041291;28;20195;-64
2022/01/04 03:15:11;;;;;;;3.90;3.17;;;;;;;;;;5037287;28;20191;-65
2022/01/04 03:17:37;;;;;;;4.00;2.90;;;;;;;;;;5038156;28;20210;-64
2022/01/04 03:20:04;;;;;;;4.90;3.47;;;;;;;;;;5036430;28;20671;-63
2022/01/04 03:22:30;;;;;;;6.17;3.47;;;;;;;;;;5038372;28;20213;-64
2022/01/04 03:24:56;;;;;;;6.33;4.00;;;;;;;;;;5036348;28;20647;-64
2022/01/04 03:27:22;;;;;;;9.13;3.90;;;;;;;;;;5037734;28;20199;-65
2022/01/04 03:29:48;;;;;;;3.93;3.47;;;;;;;;;;5037728;28;20179;-65
2022/01/04 03:32:14;;;;;;;5.93;3.90;;;;;;;;;;5037543;28;20187;-64
2022/01/04 03:34:40;;;;;;;4.23;3.83;;;;;;;;;;5036137;28;20326;-64
2022/01/04 03:37:06;;;;;;;6.90;4.70;;;;;;;;;;5036588;28;20393;-65
2022/01/04 03:39:32;;;;;;;4.83;4.30;;;;;;;;;;5037217;28;20235;-65
2022/01/04 03:41:58;;;;;;;7.67;4.63;;;;;;;;;;5038003;28;20183;-65
2022/01/04 03:44:24;;;;;;;8.20;4.67;;;;;;;;;;5038159;28;20627;-65
2022/01/04 03:46:51;;;;;;;6.93;4.60;;;;;;;;;;5036063;28;20293;-65
2022/01/04 03:49:18;;;;;;;6.27;4.97;;;;;;;;;;5037271;28;20183;-63
2022/01/04 03:51:44;;;;;;;6.17;4.90;;;;;;;;;;5036989;28;20183;-65
2022/01/04 03:54:10;;;;;;;9.37;5.70;;;;;;;;;;5035773;28;20298;-65
2022/01/04 03:56:36;;;;;;;5.67;5.07;;;;;;;;;;5036158;28;20298;-64
2022/01/04 03:59:02;;;;;;;7.70;5.13;;;;;;;;;;5037437;28;20234;-65
2022/01/04 04:01:28;;;;;;;6.47;5.50;;;;;;;;;;5035765;28;20186;-63
2022/01/04 04:03:54;;;;;;;7.90;6.07;;;;;;;;;;5037749;28;20616;-65
2022/01/04 04:06:20;;;;;;;7.47;5.97;;;;;;;;;;5035213;28;20238;-66
2022/01/04 04:08:46;;;;;;;8.93;6.03;;;;;;;;;;5036222;28;20190;-65
2022/01/04 04:11:13;;;;;;;8.80;6.43;;;;;;;;;;5035228;28;20183;-65
2022/01/04 04:13:39;;;;;;;8.00;5.80;;;;;;;;;;5036872;28;20186;-65
2022/01/04 04:16:05;;;;;;;8.77;6.63;;;;;;;;;;5036768;28;20199;-65
2022/01/04 04:18:31;;;;;;;9.43;6.70;;;;;;;;;;5035157;28;20191;-65
2022/01/04 04:20:57;;;;;;;12.30;7.60;;;;;;;;;;5034850;28;20190;-65
2022/01/04 04:23:23;;;;;;;9.07;6.70;;;;;;;;;;5035684;28;20190;-65
2022/01/04 04:25:49;;;;;;;7.83;6.47;;;;;;;;;;5036158;28;20202;-64
2022/01/04 04:28:15;;;;;;;10.00;7.40;;;;;;;;;;5036276;28;20175;-65
2022/01/04 04:30:41;;;;;;;10.20;7.20;;;;;;;;;;5036011;28;20553;-65
2022/01/04 04:33:07;;;;;;;9.20;7.80;;;;;;;;;;5035571;28;20183;-65
2022/01/04 04:35:33;;;;;;;9.37;7.40;;;;;;;;;;5035168;28;20179;-66
2022/01/04 04:38:00;;;;;;;7.70;6.90;;;;;;;;;;5034101;28;20210;-66
2022/01/04 04:40:26;;;;;;;10.63;7.43;;;;;;;;;;5033770;28;20199;-65
2022/01/04 04:42:52;;;;;;;11.03;7.40;;;;;;;;;;5034023;28;20186;-65
2022/01/04 04:45:18;;;;;;;8.50;6.83;;;;;;;;;;5035020;28;20230;-65
2022/01/04 04:47:44;;;;;;;8.73;7.83;;;;;;;;;;5033887;28;20195;-65
2022/01/04 04:50:10;;;;;;;8.07;7.27;;;;;;;;;;5033764;28;20563;-66
2022/01/04 04:52:36;;;;;;;8.57;7.73;;;;;;;;;;5035025;28;20189;-65
2022/01/04 04:55:03;;;;;;;8.23;7.10;;;;;;;;;;5034053;28;20180;-65
2022/01/04 04:57:29;;;;;;;8.90;7.87;;;;;;;;;;5035231;28;20281;-65
2022/01/04 04:59:55;;;;;;;8.77;7.73;;;;;;;;;;5035047;28;20329;-65
2022/01/04 05:02:21;;;;;;;9.70;7.90;;;;;;;;;;5034831;28;20171;-65
2022/01/04 05:04:47;;;;;;;11.43;8.67;;;;;;;;;;5033413;28;20211;-65
2022/01/04 05:07:13;;;;;;;9.60;7.77;;;;;;;;;;5034537;28;20210;-65
2022/01/04 05:09:39;;;;;;;11.53;8.77;;;;;;;;;;5035023;28;20554;-65
2022/01/04 05:12:06;;;;;;;15.17;9.40;;;;;;;;;;5034983;28;20236;-65
2022/01/04 05:14:32;;;;;;;12.07;9.07;;;;;;;;;;5035638;28;20183;-63
2022/01/04 05:16:58;;;;;;;10.03;8.97;;;;;;;;;;5035240;28;20231;-65
2022/01/04 05:19:24;;;;;;;15.67;11.40;;;;;;;;;;5034926;28;20663;-66
2022/01/04 05:21:50;;;;;;;13.73;9.63;;;;;;;;;;5034841;28;20179;-65
2022/01/04 05:24:16;;;;;;;9.83;8.77;;;;;;;;;;5035170;28;20183;-66
2022/01/04 05:26:42;;;;;;;11.53;9.27;;;;;;;;;;5035147;28;20195;-64
2022/01/04 05:29:08;;;;;;;10.03;9.03;;;;;;;;;;5033449;28;20210;-65
2022/01/04 05:31:34;;;;;;;10.80;8.83;;;;;;;;;;5034720;28;20256;-66
2022/01/04 05:34:00;;;;;;;13.83;9.27;;;;;;;;;;5034618;28;20666;-66
2022/01/04 05:36:26;;;;;;;14.33;10.10;;;;;;;;;;5034248;28;20298;-66
2022/01/04 05:38:52;;;;;;;12.73;10.40;;;;;;;;;;5034482;28;20203;-64
2022/01/04 05:41:18;;;;;;;13.97;11.00;;;;;;;;;;5034772;28;20232;-66
2022/01/04 05:43:45;;;;;;;19.20;12.63;;;;;;;;;;5035062;28;20186;-65
2022/01/04 05:46:11;;;;;;;16.53;13.00;;;;;;;;;;5034487;28;20198;-64
2022/01/04 05:48:37;;;;;;;13.63;9.73;;;;;;;;;;5033038;28;20643;-65
2022/01/04 05:51:03;;;;;;;9.53;8.00;;;;;;;;;;5034617;28;20254;-64
2022/01/04 05:53:30;;;;;;;11.33;8.23;;;;;;;;;;5033550;28;20610;-65
2022/01/04 05:55:56;;;;;;;9.60;8.63;;;;;;;;;;5033970;28;20198;-64
2022/01/04 05:58:22;;;;;;;14.17;10.90;;;;;;;;;;5035194;28;20259;-65
2022/01/04 06:00:49;;;;;;;10.50;9.20;;;;;;;;;;5034297;28;20254;-64
2022/01/04 06:03:15;;;;;;;11.20;8.17;;;;;;;;;;5033141;28;20175;-65
2022/01/04 06:05:41;;;;;;;12.23;9.20;;;;;;;;;;5034795;28;20193;-65
2022/01/04 06:08:07;;;;;;;8.87;7.80;;;;;;;;;;5033219;28;20255;-64
2022/01/04 06:10:38;;;;;;;11.87;8.90;;;;;;;;;;5034658;28;20695;-65
2022/01/04 06:15:30;;;;;;;11.93;8.90;;;;;;;;;;5034817;28;20249;-64
2022/01/04 06:17:57;;;;;;;11.73;8.77;;;;;;;;;;5034526;28;20293;-64
2022/01/04 06:20:24;;;;;;;12.50;9.40;;;;;;;;;;5032848;28;20206;-65
2022/01/04 06:22:50;;;;;;;11.30;8.87;;;;;;;;;;5034442;28;20710;-64
2022/01/04 06:25:17;;;;;;;12.77;9.03;;;;;;;;;;5034457;28;20206;-64
2022/01/04 06:27:44;;;;;;;14.37;10.33;;;;;;;;;;5034424;28;20286;-63
2022/01/04 06:30:10;;;;;;;12.57;9.33;;;;;;;;;;5034347;28;20183;-65
2022/01/04 06:32:36;;;;;;;12.93;10.07;;;;;;;;;;5033406;28;20183;-64
2022/01/04 06:35:03;;;;;;;10.87;9.13;;;;;;;;;;5033270;28;20738;-64
2022/01/04 06:37:29;;;;;;;9.30;8.27;;;;;;;;;;5034450;28;20248;-65
2022/01/04 06:39:55;;;;;;;12.33;9.03;;;;;;;;;;5034199;28;20297;-64
2022/01/04 06:42:21;;;;;;;14.13;9.37;;;;;;;;;;5035398;28;20254;-65
2022/01/04 06:44:47;;;;;;;23.20;14.37;;;;;;;;;;5035721;28;20655;-63
2022/01/04 06:47:13;;;;;;;18.17;12.33;;;;;;;;;;5034626;28;20217;-65
2022/01/04 06:49:40;;;;;;;11.33;9.27;;;;;;;;;;5033347;28;20179;-65
2022/01/04 06:52:06;;;;;;;14.10;10.20;;;;;;;;;;5038094;28;20685;-65
2022/01/04 06:54:32;;;;;;;15.80;11.07;;;;;;;;;;5038494;28;20182;-64
2022/01/04 06:56:58;;;;;;;21.33;14.73;;;;;;;;;;5038575;28;20252;-64
2022/01/04 06:59:24;;;;;;;15.23;10.00;;;;;;;;;;5038273;28;20195;-65
2022/01/04 07:01:50;;;;;;;11.03;8.93;;;;;;;;;;5038644;28;20175;-64
2022/01/04 07:04:16;;;;;;;12.63;9.97;;;;;;;;;;5037827;28;20182;-65
2022/01/04 07:06:42;;;;;;;12.37;10.07;;;;;;;;;;5037422;28;20215;-65
2022/01/04 07:09:08;;;;;;;12.37;10.03;;;;;;;;;;5039268;28;20226;-64
2022/01/04 07:11:34;;;;;;;10.90;9.77;;;;;;;;;;5038719;28;20267;-64
2022/01/04 07:14:01;;;;;;;12.03;10.27;;;;;;;;;;5037381;28;20559;-65
2022/01/04 07:16:27;;;;;;;12.33;9.10;;;;;;;;;;5037638;28;20221;-64
2022/01/04 07:18:53;;;;;;;14.57;9.87;;;;;;;;;;5039395;28;20195;-65
2022/01/04 07:21:20;;;;;;;11.33;9.17;;;;;;;;;;5038315;28;20186;-65
2022/01/04 07:23:48;;;;;;;14.63;10.37;;;;;;;;;;5038121;28;20175;-64
2022/01/04 07:26:17;;;;;;;12.50;10.73;;;;;;;;;;5039395;28;20274;-70
2022/01/04 07:28:43;;;;;;;16.43;9.97;;;;;;;;;;5040168;28;20182;-64
2022/01/04 07:31:09;;;;;;;15.67;10.57;;;;;;;;;;5038978;28;20222;-63
2022/01/04 07:33:35;;;;;;;17.37;10.67;;;;;;;;;;5039131;28;20254;-64
2022/01/04 07:36:02;;;;;;;15.20;10.27;;;;;;;;;;5038798;28;20199;-65
2022/01/04 07:38:27;;;;;;;15.70;11.43;;;;;;;;;;5037390;28;20599;-65
2022/01/04 07:40:54;;;;;;;18.07;11.10;;;;;;;;;;5038350;28;20217;-64
2022/01/04 07:43:20;;;;;;;13.47;10.50;;;;;;;;;;5038611;28;20175;-64
2022/01/04 07:45:46;;;;;;;15.13;10.77;;;;;;;;;;5038270;28;20179;-65
2022/01/04 07:48:12;;;;;;;17.07;11.10;;;;;;;;;;5038789;28;20262;-64
2022/01/04 07:50:38;;;;;;;16.23;11.40;;;;;;;;;;5038354;28;20179;-65
2022/01/04 07:53:04;;;;;;;19.97;12.17;;;;;;;;;;5036690;28;20179;-65
2022/01/04 07:55:30;;;;;;;16.23;11.27;;;;;;;;;;5034763;28;20187;-64
2022/01/04 07:57:56;;;;;;;15.23;10.73;;;;;;;;;;5035836;28;20214;-66
2022/01/04 08:00:22;;;;;;;15.47;11.03;;;;;;;;;;5036204;28;20567;-64
2022/01/04 08:02:48;;;;;;;15.23;11.30;;;;;;;;;;5036015;28;20179;-64
2022/01/04 08:05:14;;;;;;;18.10;12.00;;;;;;;;;;5038119;28;20183;-65
2022/01/04 08:07:40;;;;;;;16.23;11.57;;;;;;;;;;5037438;28;20569;-63
2022/01/04 08:10:06;;;;;;;16.77;11.27;;;;;;;;;;5039893;28;20179;-64
2022/01/04 08:12:32;;;;;;;18.33;12.57;;;;;;;;;;5040162;28;20229;-65
2022/01/04 08:14:58;;;;;;;20.17;13.63;;;;;;;;;;5038013;28;20654;-64
2022/01/04 08:17:24;;;;;;;18.37;12.80;;;;;;;;;;5039489;28;20208;-64
2022/01/04 08:19:53;;;;;;;42.00;25.47;;;;;;;;;;5038760;28;20195;-65
2022/01/04 08:22:19;;;;;;;42.50;27.03;;;;;;;;;;5039130;28;20639;-63
2022/01/04 08:24:45;;;;;;;36.93;22.17;;;;;;;;;;5037706;28;20271;-63
2022/01/04 08:27:11;;;;;;;35.50;22.77;;;;;;;;;;5038012;28;20199;-65
2022/01/04 08:29:37;;;;;;;38.40;25.40;;;;;;;;;;5036349;28;20233;-63
2022/01/04 08:32:03;;;;;;;26.90;16.13;;;;;;;;;;5034520;28;20183;-70
2022/01/04 08:34:29;;;;;;;31.37;20.50;;;;;;;;;;5035975;28;20179;-65
2022/01/04 08:36:56;;;;;;;26.13;17.83;;;;;;;;;;5035320;28;20210;-65
2022/01/04 08:39:26;;;;;;;22.27;15.43;;;;;;;;;;5035771;28;20582;-64
2022/01/04 08:41:54;;;;;;;21.10;13.90;;;;;;;;;;5036268;28;20167;-63
2022/01/04 08:44:21;;;;;;;21.57;13.20;;;;;;;;;;5036426;28;20171;-64
2022/01/04 08:46:47;;;;;;;21.87;16.00;;;;;;;;;;5036288;28;20199;-65
2022/01/04 08:49:13;;;;;;;31.50;18.47;;;;;;;;;;5036081;28;20186;-66
2022/01/04 08:51:39;;;;;;;28.37;17.93;;;;;;;;;;5034971;28;20544;-68
2022/01/04 08:54:05;;;;;;;26.33;17.33;;;;;;;;;;5037200;28;20179;-64
2022/01/04 08:56:32;;;;;;;29.93;17.37;;;;;;;;;;5037235;28;20202;-65
2022/01/04 08:58:58;;;;;;;23.83;16.17;;;;;;;;;;5036944;28;20671;-65
2022/01/04 09:01:24;;;;;;;20.13;15.03;;;;;;;;;;5037563;28;20202;-65
2022/01/04 09:03:50;;;;;;;20.17;14.40;;;;;;;;;;5036233;28;20176;-65
2022/01/04 09:06:16;;;;;;;21.10;13.87;;;;;;;;;;5037628;28;20207;-65
2022/01/04 09:08:43;;;;;;;18.23;12.90;;;;;;;;;;5036669;28;20168;-64
2022/01/04 09:11:09;;;;;;;19.80;13.83;;;;;;;;;;5035511;28;20530;-64
2022/01/04 09:13:39;;;;;;;21.97;13.00;;;;;;;;;;5035280;28;20225;-65
2022/01/04 09:18:46;;;;;;;24.97;13.97;;;;;;;;;;5036985;28;20186;-65
2022/01/04 09:21:24;;;;;;;19.47;12.77;;;;;;;;;;5036274;28;20590;-65
2022/01/04 09:23:50;;;;;;;20.77;14.57;;;;;;;;;;5034416;28;20225;-64
2022/01/04 09:26:17;;;;;;;17.93;12.73;;;;;;;;;;5035426;28;20194;-65
2022/01/04 09:28:43;;;;;;;19.80;11.97;;;;;;;;;;5035634;28;20175;-65
2022/01/04 09:31:10;;;;;;;19.40;12.40;;;;;;;;;;5034496;28;20187;-65
2022/01/04 09:33:36;;;;;;;20.63;11.90;;;;;;;;;;5035460;28;20601;-66
2022/01/04 09:36:03;;;;;;;17.77;12.43;;;;;;;;;;5035127;28;20211;-66
2022/01/04 09:38:30;;;;;;;18.47;12.00;;;;;;;;;;5035475;28;20182;-66
2022/01/04 09:40:56;;;;;;;18.10;12.37;;;;;;;;;;5035157;28;20793;-64
2022/01/04 09:43:24;;;;;;;15.90;11.20;;;;;;;;;;5035836;28;20212;-65
2022/01/04 09:45:50;;;;;;;18.17;12.87;;;;;;;;;;5034992;28;20172;-65
2022/01/04 09:48:16;;;;;;;18.70;12.47;;;;;;;;;;5035013;28;20182;-65
2022/01/04 09:50:43;;;;;;;17.70;12.53;;;;;;;;;;5034952;28;20545;-65
2022/01/04 09:53:09;;;;;;;17.77;11.80;;;;;;;;;;5034871;28;20546;-65
2022/01/04 09:55:38;;;;;;;17.30;11.27;;;;;;;;;;5034882;28;20175;-65
2022/01/04 09:58:04;;;;;;;14.80;10.57;;;;;;;;;;5034092;28;20206;-64
2022/01/04 10:00:31;;;;;;;19.70;12.97;;;;;;;;;;5033620;28;20202;-66
2022/01/04 10:03:09;;;;;;;15.77;11.90;;;;;;;;;;5035546;28;20183;-65
2022/01/04 10:05:36;;;;;;;15.90;11.53;;;;;;;;;;5035099;28;20163;-65
2022/01/04 10:08:05;;;;;;;14.03;11.40;;;;;;;;;;5034402;28;20207;-65
2022/01/04 10:10:32;;;;;;;18.27;9.87;;;;;;;;;;5033622;28;20187;-65
2022/01/04 10:13:00;;;;;;;18.90;11.40;;;;;;;;;;5034548;28;20206;-65
2022/01/04 10:15:30;;;;;;;15.80;10.97;;;;;;;;;;5033165;28;20189;-65
2022/01/04 10:17:56;;;;;;;15.83;11.10;;;;;;;;;;5035036;28;20230;-65
2022/01/04 10:20:23;;;;;;;16.87;10.40;;;;;;;;;;5035099;28;20199;-64
2022/01/04 10:22:50;;;;;;;12.93;10.33;;;;;;;;;;5035494;28;20631;-65
2022/01/04 10:25:20;;;;;;;19.27;11.60;;;;;;;;;;5035855;28;20179;-65
2022/01/04 10:27:50;;;;;;;16.00;12.10;;;;;;;;;;5038566;28;20194;-64
2022/01/04 10:30:17;;;;;;;13.77;10.67;;;;;;;;;;5039519;28;20595;-66
2022/01/04 10:32:52;;;;;;;13.13;10.30;;;;;;;;;;5038956;28;20201;-64
2022/01/04 10:35:23;;;;;;;16.63;11.63;;;;;;;;;;5039583;28;20227;-64
2022/01/04 10:37:49;;;;;;;15.40;11.87;;;;;;;;;;5038452;28;20199;-66
2022/01/04 10:40:16;;;;;;;17.17;11.43;;;;;;;;;;5037864;28;20562;-64
2022/01/04 10:42:42;;;;;;;21.57;12.63;;;;;;;;;;5037869;28;20550;-64
2022/01/04 10:45:26;;;;;;;16.87;12.60;;;;;;;;;;5037534;28;20707;-65
2022/01/04 10:47:52;;;;;;;19.73;12.13;;;;;;;;;;5036737;28;20203;-65
2022/01/04 10:50:35;;;;;;;13.90;10.97;;;;;;;;;;5036025;28;20187;-65
2022/01/04 10:53:01;;;;;;;13.53;10.80;;;;;;;;;;5038081;28;20186;-66
2022/01/04 10:55:34;;;;;;;14.50;11.63;;;;;;;;;;5037413;28;20665;-65
2022/01/04 10:58:00;;;;;;;14.07;10.17;;;;;;;;;;5038886;28;20565;-65
2022/01/04 11:00:27;;;;;;;15.20;12.20;;;;;;;;;;5037465;28;20200;-66
2022/01/04 11:02:52;;;;;;;16.17;11.67;;;;;;;;;;5038252;28;20190;-65
2022/01/04 11:05:20;;;;;;;15.67;10.97;;;;;;;;;;5039638;28;20238;-64
2022/01/04 11:07:56;;;;;;;16.47;11.67;;;;;;;;;;5038728;28;20211;-64
2022/01/04 11:10:22;;;;;;;19.97;12.57;;;;;;;;;;5038141;28;20189;-65
2022/01/04 11:12:48;;;;;;;16.57;12.67;;;;;;;;;;5038886;28;20599;-65
2022/01/04 11:15:14;;;;;;;16.43;11.50;;;;;;;;;;5038226;28;20179;-65
2022/01/04 11:17:41;;;;;;;18.10;12.83;;;;;;;;;;5037262;28;20790;-64
2022/01/04 11:20:07;;;;;;;18.50;11.70;;;;;;;;;;5038871;28;20211;-65
2022/01/04 11:22:34;;;;;;;15.63;11.87;;;;;;;;;;5038981;28;20254;-65
2022/01/04 11:25:02;;;;;;;16.93;11.03;;;;;;;;;;5039305;28;20179;-65
2022/01/04 11:27:30;;;;;;;14.27;11.27;;;;;;;;;;5039756;28;20191;-65
2022/01/04 11:29:58;;;;;;;17.17;12.00;;;;;;;;;;5040900;28;20326;-65
2022/01/04 11:32:25;;;;;;;17.83;12.50;;;;;;;;;;5040068;28;20227;-65
2022/01/04 11:35:07;;;;;;;16.57;11.60;;;;;;;;;;5038247;28;20183;-63
2022/01/04 11:37:34;;;;;;;21.17;11.83;;;;;;;;;;5035467;28;20203;-65
2022/01/04 11:40:20;;;;;;;19.77;11.83;;;;;;;;;;5035851;28;20195;-65
2022/01/04 11:42:46;;;;;;;16.77;12.37;;;;;;;;;;5036011;28;20191;-64
2022/01/04 11:45:12;;;;;;;26.50;16.10;;;;;;;;;;5035441;28;20217;-65
2022/01/04 11:47:38;;;;;;;23.73;15.67;;;;;;;;;;5035448;28;20757;-65
2022/01/04 11:50:07;;;;;;;21.67;13.97;;;;;;;;;;5035464;28;20265;-65
2022/01/04 11:52:41;;;;;;;14.27;11.77;;;;;;;;;;5035487;28;20175;-64
2022/01/04 11:55:22;;;;;;;16.77;11.23;;;;;;;;;;5034122;28;20187;-66
2022/01/04 11:57:49;;;;;;;20.50;12.20;;;;;;;;;;5035437;28;20252;-65
2022/01/04 12:00:28;;;;;;;15.60;12.17;;;;;;;;;;5035572;28;20209;-63
2022/01/04 12:03:03;;;;;;;22.20;13.33;;;;;;;;;;5035341;28;20662;-65
2022/01/04 12:05:29;;;;;;;17.90;12.90;;;;;;;;;;5035415;28;20602;-65
2022/01/04 12:07:56;;;;;;;22.07;14.40;;;;;;;;;;5035120;28;20206;-65
2022/01/04 12:10:21;;;;;;;22.07;15.07;;;;;;;;;;5033855;28;20205;-64
2022/01/04 12:12:54;;;;;;;21.00;14.60;;;;;;;;;;5035419;28;20175;-64
2022/01/04 12:15:36;;;;;;;19.33;13.37;;;;;;;;;;5035537;28;20207;-64
2022/01/04 12:18:06;;;;;;;19.40;13.70;;;;;;;;;;5034937;28;20663;-65
2022/01/04 12:20:44;;;;;;;24.13;14.47;;;;;;;;;;5034106;28;20210;-65
2022/01/04 12:23:31;;;;;;;21.10;13.97;;;;;;;;;;5033456;28;20187;-65
2022/01/04 12:28:33;;;;;;;21.17;15.27;;;;;;;;;;5034587;28;20547;-65
2022/01/04 12:31:17;;;;;;;22.00;14.33;;;;;;;;;;5034860;28;20233;-64
2022/01/04 12:33:45;;;;;;;20.93;14.37;;;;;;;;;;5033164;28;20187;-65
2022/01/04 12:36:22;;;;;;;24.30;14.10;;;;;;;;;;5034353;28;20274;-65
2022/01/04 12:38:49;;;;;;;20.83;13.90;;;;;;;;;;5034541;28;20191;-65
2022/01/04 12:41:15;;;;;;;26.80;16.13;;;;;;;;;;5034281;28;20250;-66
2022/01/04 12:43:41;;;;;;;23.70;14.63;;;;;;;;;;5034895;28;20185;-66
2022/01/04 12:46:07;;;;;;;18.87;14.10;;;;;;;;;;5034494;28;20195;-65
2022/01/04 12:48:47;;;;;;;25.93;15.50;;;;;;;;;;5032906;28;20557;-65
2022/01/04 12:51:23;;;;;;;22.83;16.10;;;;;;;;;;5034280;28;20177;-65
2022/01/04 12:53:49;;;;;;;22.27;15.20;;;;;;;;;;5032830;28;20666;-66
2022/01/04 12:56:15;;;;;;;20.77;14.30;;;;;;;;;;5033981;28;20195;-66
2022/01/04 12:58:41;;;;;;;25.90;15.23;;;;;;;;;;5034246;28;20202;-66
2022/01/04 13:01:07;;;;;;;24.23;15.43;;;;;;;;;;5032530;28;20214;-64
2022/01/04 13:03:33;;;;;;;25.90;15.30;;;;;;;;;;5049586;23;20168;-64
2022/01/04 13:06:00;;;;;;;25.50;14.50;;;;;;;;;;5034238;28;20179;-66
2022/01/04 13:08:26;;;;;;;31.50;18.30;;;;;;;;;;5049519;28;20209;-66
2022/01/04 13:11:08;;;;;;;29.53;18.20;;;;;;;;;;5034132;28;20187;-66
2022/01/04 13:13:34;;;;;;;24.63;16.63;;;;;;;;;;5033784;28;20244;-66
2022/01/04 13:16:38;;;;;;;27.27;17.43;;;;;;;;;;5033911;28;20686;-66
2022/01/04 13:19:11;;;;;;;29.07;16.00;;;;;;;;;;4957353;28;20279;-66
2022/01/04 13:21:37;;;;;;;29.13;19.07;;;;;;;;;;4973153;28;20723;-66
2022/01/04 13:24:04;;;;;;;26.83;16.63;;;;;;;;;;5005042;28;20211;-66
2022/01/04 13:26:30;;;;;;;59.73;31.10;;;;;;;;;;5034036;28;20185;-66
2022/01/04 13:28:56;;;;;;;27.10;12.33;;;;;;;;;;5032649;28;20265;-67
2022/01/04 13:31:23;;;;;;;27.50;15.27;;;;;;;;;;5034322;28;20209;-67
2022/01/04 13:33:49;;;;;;;13.60;10.00;;;;;;;;;;5033312;28;20210;-67
2022/01/04 13:36:15;;;;;;;12.17;8.23;;;;;;;;;;5034169;28;20183;-68
2022/01/04 13:38:41;;;;;;;7.13;5.33;;;;;;;;;;5032775;28;20202;-67
2022/01/04 13:41:08;;;;;;;10.33;5.20;;;;;;;;;;5033877;28;20293;-67
2022/01/04 13:43:45;;;;;;;5.80;4.40;;;;;;;;;;5034118;28;20191;-67
2022/01/04 13:46:15;;;;;;;6.00;4.90;;;;;;;;;;5034960;28;20159;-67
2022/01/04 13:48:44;;;;;;;4.10;3.57;;;;;;;;;;5034889;28;20171;-67
2022/01/04 13:51:11;;;;;;;5.60;4.17;;;;;;;;;;5035518;28;20627;-67
2022/01/04 13:53:38;;;;;;;5.27;4.70;;;;;;;;;;5038162;28;20239;-67
2022/01/04 13:56:15;;;;;;;6.73;5.57;;;;;;;;;;5037940;28;20179;-67
2022/01/04 13:58:49;;;;;;;7.23;6.50;;;;;;;;;;5032512;28;20189;-67
2022/01/04 14:01:18;;;;;;;7.00;3.77;;;;;;;;;;5031822;28;20186;-67
2022/01/04 14:03:48;;;;;;;3.37;2.90;;;;;;;;;;5032906;28;20211;-67
2022/01/04 14:06:31;;;;;;;8.47;5.50;;;;;;;;;;5033561;28;20167;-67
2022/01/04 14:08:57;;;;;;;11.63;7.17;;;;;;;;;;5032993;28;20182;-66
2022/01/04 14:11:24;;;;;;;7.33;5.20;;;;;;;;;;5033033;28;20179;-67
2022/01/04 14:13:50;;;;;;;14.93;8.63;;;;;;;;;;5033129;28;20199;-66
2022/01/04 14:16:17;;;;;;;7.73;6.00;;;;;;;;;;5032954;28;20639;-67
2022/01/04 14:19:03;;;;;;;8.70;6.90;;;;;;;;;;5033262;28;20179;-66
2022/01/04 14:21:33;;;;;;;6.33;4.83;;;;;;;;;;5032997;28;20596;-66
2022/01/04 14:23:59;;;;;;;5.03;4.30;;;;;;;;;;5033390;28;20289;-66
2022/01/04 14:26:25;;;;;;;8.13;5.13;;;;;;;;;;5033651;28;20553;-66
2022/01/04 14:28:51;;;;;;;23.97;13.70;;;;;;;;;;5033327;28;20271;-66
2022/01/04 14:31:17;;;;;;;79.60;33.27;;;;;;;;;;5031705;28;20226;-66
2022/01/04 14:33:43;;;;;;;11.53;7.70;;;;;;;;;;5032828;28;20210;-66
2022/01/04 14:36:09;;;;;;;7.87;6.40;;;;;;;;;;5031576;28;20188;-66
2022/01/04 14:38:35;;;;;;;11.97;9.87;;;;;;;;;;5031694;28;20193;-66
2022/01/04 14:41:01;;;;;;;11.63;7.90;;;;;;;;;;5032680;28;20286;-66
2022/01/04 14:43:28;;;;;;;7.63;6.80;;;;;;;;;;5033184;28;20176;-66